Viking Amber — 9V7985 — position and weather

sailwx.info

Track history (hours):
 
Tides and Currents Weather Stations Pressure Air Temp Water Temp Dewpoint Dewpoint Depression Visibility Wind Speed Wind Dir Waves Ship Positions

Viking Amber

Last reported at 2016-Apr-28 12:33 UTC. Time now 2016-Apr-30 16:57 UTC.
Position N 35°10' E 139°45'.

Length 167 m; draft 8.1 m.

Type: Other ship. MMSI: 563255000.

Date/timePositionNaut miles runAvg speedWind from/ knotsBaromVisibWave heightAir tempDewpointWater temp
2016-Apr-28 12:33N 35°10' E 139°45'1010.3
2016-Apr-28 11:34N 35°20' E 139°43'7 7.3
2016-Apr-28 10:32N 35°27' E 139°41'0 0.0
2016-Apr-28 09:32N 35°27' E 139°41'0 0.0
2016-Apr-28 08:33N 35°27' E 139°41'0 0.0
2016-Apr-28 07:33N 35°27' E 139°41'0 0.0
2016-Apr-28 06:32N 35°27' E 139°41'0 0.0
2016-Apr-28 05:33N 35°27' E 139°41'0 0.0
2016-Apr-28 04:32N 35°27' E 139°41'0 0.0
2016-Apr-28 03:32N 35°27' E 139°41'0 0.2
2016-Apr-28 02:33N 35°27' E 139°41'2 1.6
2016-Apr-28 01:31N 35°25' E 139°41'0 0.0
2016-Apr-28 00:31N 35°25' E 139°41'0 0.0
2016-Apr-27 23:31N 35°25' E 139°41'0 0.0
2016-Apr-27 22:31N 35°25' E 139°41'2 2.4
2016-Apr-27 21:33N 35°24' E 139°42'1211.9
2016-Apr-27 20:33N 35°12' E 139°47'1110.7
2016-Apr-27 19:33N 35°03' E 139°41'18 3.5
2016-Apr-27 14:26N 34°51' E 139°25'  
2016-Apr-25 09:34N 34°06' E 134°56'1615.4
2016-Apr-25 08:30N 34°22' E 135°00'1717.8
2016-Apr-25 07:33N 34°33' E 135°16'8 7.7
2016-Apr-25 06:33N 34°37' E 135°24'0 0.0
2016-Apr-25 05:33N 34°37' E 135°24'0 0.0
2016-Apr-25 04:33N 34°37' E 135°24'0 0.0
2016-Apr-25 03:27N 34°37' E 135°24'0 0.0
2016-Apr-25 02:33N 34°37' E 135°24'0 0.0
2016-Apr-25 01:27N 34°37' E 135°24'0 0.0
2016-Apr-25 00:33N 34°37' E 135°24'0 0.0
2016-Apr-24 23:33N 34°37' E 135°24'0 0.0
2016-Apr-24 22:33N 34°37' E 135°24'0 0.0
2016-Apr-24 21:33N 34°37' E 135°24'0 0.0
2016-Apr-24 20:33N 34°37' E 135°24'0 0.0
2016-Apr-24 19:33N 34°37' E 135°24'0 0.0
2016-Apr-24 18:21N 34°37' E 135°24'0 0.0
2016-Apr-24 17:33N 34°37' E 135°24'0 0.0
2016-Apr-24 16:33N 34°37' E 135°24'0 0.0
2016-Apr-24 15:33N 34°37' E 135°24'0 0.0
2016-Apr-24 14:33N 34°37' E 135°24'0 0.0
2016-Apr-24 13:27N 34°37' E 135°24'0 0.0
2016-Apr-24 12:33N 34°37' E 135°24'0 0.0
2016-Apr-24 11:33N 34°37' E 135°24'0 0.0
2016-Apr-24 10:27N 34°37' E 135°24'0 0.0
2016-Apr-24 09:33N 34°37' E 135°24'0 0.0
2016-Apr-24 08:33N 34°37' E 135°24'0 0.0
2016-Apr-24 07:33N 34°37' E 135°24'0 0.0
2016-Apr-24 06:27N 34°37' E 135°24'0 0.0
2016-Apr-24 05:33N 34°37' E 135°24'0 0.0
2016-Apr-24 04:33N 34°37' E 135°24'0 0.0
2016-Apr-24 03:27N 34°37' E 135°24'0 0.0
2016-Apr-24 02:33N 34°37' E 135°24'0 0.1
2016-Apr-24 01:33N 34°37' E 135°24'6 5.8
2016-Apr-24 00:33N 34°34' E 135°18'1211.7
2016-Apr-23 23:33N 34°26' E 135°08'1313.1
2016-Apr-23 22:33N 34°15' E 134°60'1110.9
2016-Apr-23 21:33N 34°04' E 134°60'  
2016-Apr-19 20:32N 22°09' E 113°48'4313.2
2016-Apr-19 17:19N 22°50' E 113°35'810.4
2016-Apr-19 16:33N 22°58' E 113°33'3 2.8
2016-Apr-19 15:23N 23°01' E 113°32'0 0.0
2016-Apr-19 13:29N 23°01' E 113°32'0 0.0
2016-Apr-19 12:29N 23°01' E 113°32'0 0.0
2016-Apr-19 11:29N 23°01' E 113°32'0 0.0
2016-Apr-19 10:29N 23°01' E 113°32'0 0.0
2016-Apr-19 09:33N 23°01' E 113°32'6 6.2
2016-Apr-19 08:33N 22°55' E 113°34'11 9.9
2016-Apr-19 07:29N 22°45' E 113°39'2412.3
2016-Apr-19 05:32N 22°22' E 113°47'1212.2
2016-Apr-19 04:33N 22°10' E 113°47'19 5.6
2016-Apr-19 01:15N 22°17' E 114°06'  
Track history (hours):
 
Tides and Currents Weather Stations Pressure Air Temp Water Temp Dewpoint Dewpoint Depression Visibility Wind Speed Wind Dir Waves Ship Positions

Viking Amber

Last reported at 2016-Apr-28 12:33 UTC. Time now 2016-Apr-30 16:57 UTC.
Position N 35°10' E 139°45'.

Length 167 m; draft 8.1 m.

Type: Other ship. MMSI: 563255000.

Date/timePositionNaut miles runAvg speedWind from/ knotsBaromVisibWave heightAir tempDewpointWater temp
2016-Apr-28 12:33N 35°10' E 139°45'1010.3
2016-Apr-28 11:34N 35°20' E 139°43'7 7.3
2016-Apr-28 10:32N 35°27' E 139°41'0 0.0
2016-Apr-28 09:32N 35°27' E 139°41'0 0.0
2016-Apr-28 08:33N 35°27' E 139°41'0 0.0
2016-Apr-28 07:33N 35°27' E 139°41'0 0.0
2016-Apr-28 06:32N 35°27' E 139°41'0 0.0
2016-Apr-28 05:33N 35°27' E 139°41'0 0.0
2016-Apr-28 04:32N 35°27' E 139°41'0 0.0
2016-Apr-28 03:32N 35°27' E 139°41'0 0.2
2016-Apr-28 02:33N 35°27' E 139°41'2 1.6
2016-Apr-28 01:31N 35°25' E 139°41'0 0.0
2016-Apr-28 00:31N 35°25' E 139°41'0 0.0
2016-Apr-27 23:31N 35°25' E 139°41'0 0.0
2016-Apr-27 22:31N 35°25' E 139°41'2 2.4
2016-Apr-27 21:33N 35°24' E 139°42'1211.9
2016-Apr-27 20:33N 35°12' E 139°47'1110.7
2016-Apr-27 19:33N 35°03' E 139°41'18 3.5
2016-Apr-27 14:26N 34°51' E 139°25'  
2016-Apr-25 09:34N 34°06' E 134°56'1615.4
2016-Apr-25 08:30N 34°22' E 135°00'1717.8
2016-Apr-25 07:33N 34°33' E 135°16'8 7.7
2016-Apr-25 06:33N 34°37' E 135°24'0 0.0
2016-Apr-25 05:33N 34°37' E 135°24'0 0.0
2016-Apr-25 04:33N 34°37' E 135°24'0 0.0
2016-Apr-25 03:27N 34°37' E 135°24'0 0.0
2016-Apr-25 02:33N 34°37' E 135°24'0 0.0
2016-Apr-25 01:27N 34°37' E 135°24'0 0.0
2016-Apr-25 00:33N 34°37' E 135°24'0 0.0
2016-Apr-24 23:33N 34°37' E 135°24'0 0.0
2016-Apr-24 22:33N 34°37' E 135°24'0 0.0
2016-Apr-24 21:33N 34°37' E 135°24'0 0.0
2016-Apr-24 20:33N 34°37' E 135°24'0 0.0
2016-Apr-24 19:33N 34°37' E 135°24'0 0.0
2016-Apr-24 18:21N 34°37' E 135°24'0 0.0
2016-Apr-24 17:33N 34°37' E 135°24'0 0.0
2016-Apr-24 16:33N 34°37' E 135°24'0 0.0
2016-Apr-24 15:33N 34°37' E 135°24'0 0.0
2016-Apr-24 14:33N 34°37' E 135°24'0 0.0
2016-Apr-24 13:27N 34°37' E 135°24'0 0.0
2016-Apr-24 12:33N 34°37' E 135°24'0 0.0
2016-Apr-24 11:33N 34°37' E 135°24'0 0.0
2016-Apr-24 10:27N 34°37' E 135°24'0 0.0
2016-Apr-24 09:33N 34°37' E 135°24'0 0.0
2016-Apr-24 08:33N 34°37' E 135°24'0 0.0
2016-Apr-24 07:33N 34°37' E 135°24'0 0.0
2016-Apr-24 06:27N 34°37' E 135°24'0 0.0
2016-Apr-24 05:33N 34°37' E 135°24'0 0.0
2016-Apr-24 04:33N 34°37' E 135°24'0 0.0
2016-Apr-24 03:27N 34°37' E 135°24'0 0.0
2016-Apr-24 02:33N 34°37' E 135°24'0 0.1
2016-Apr-24 01:33N 34°37' E 135°24'6 5.8
2016-Apr-24 00:33N 34°34' E 135°18'1211.7
2016-Apr-23 23:33N 34°26' E 135°08'1313.1
2016-Apr-23 22:33N 34°15' E 134°60'1110.9
2016-Apr-23 21:33N 34°04' E 134°60'  
2016-Apr-19 20:32N 22°09' E 113°48'4313.2
2016-Apr-19 17:19N 22°50' E 113°35'810.4
2016-Apr-19 16:33N 22°58' E 113°33'3 2.8
2016-Apr-19 15:23N 23°01' E 113°32'0 0.0
2016-Apr-19 13:29N 23°01' E 113°32'0 0.0
2016-Apr-19 12:29N 23°01' E 113°32'0 0.0
2016-Apr-19 11:29N 23°01' E 113°32'0 0.0
2016-Apr-19 10:29N 23°01' E 113°32'0 0.0
2016-Apr-19 09:33N 23°01' E 113°32'6 6.2
2016-Apr-19 08:33N 22°55' E 113°34'11 9.9
2016-Apr-19 07:29N 22°45' E 113°39'2412.3
2016-Apr-19 05:32N 22°22' E 113°47'1212.2
2016-Apr-19 04:33N 22°10' E 113°47'19 5.6
2016-Apr-19 01:15N 22°17' E 114°06'  

Dump ship's entire track history